Aviation Digital Data Service (ADDS)

Output produced by METARs form (0933 UTC 23 July 2019)
found at http://www.aviationweather.gov/metar/data/
 
Forecast for: NGFU (FUNAFUTI TUVALU , FJ)
Text: TAF NGFU 230521Z 2306/2406 12008KT 9999 SCT020 BKN100
Forecast period: 0600 UTC 23 July 2019 to 0600 UTC 24 July 2019
Forecast type: FROM: standard forecast or significant change
Winds: from the ESE (120 degrees) at 9 MPH (8 knots; 4.1 m/s)
Visibility: 6 or more miles 10+ km)
Ceiling: 10000 feet AGL
Clouds: scattered clouds at 2000 feet AGL
broken clouds at 10000 feet AGL
Weather: no significant weather forecast for this period
Text: PROB30
Forecast period: 0600 to 1200 UTC 23 July 2019
Forecast type: TEMPORARY: The following changes expected for less than half the time period
Visibility: 3 miles (5 km)
Ceiling: at least 12,000 feet AGL
Clouds: few clouds at 1800 feet AGL
Weather: TSRA  (rain associated with thunderstorm(s))